Time;durP1;ratioP1;P1;durP2;ratioP2;P2;SDS_P1;SDS_P2;PMS_P1;PMS_P2;Temp;Humidity;BMP_temperature;BMP_pressure;BME280_temperature;BME280_humidity;BME280_pressure;Samples;Min_cycle;Max_cycle;Signal;HPM_P1;HPM_P2
2022/07/27 00:00:56;;;;;;;3.03;1.20;;;13.50;99.90;;;;;;5048821;28;20091;-58
2022/07/27 00:03:24;;;;;;;3.10;1.27;;;13.60;99.90;;;;;;5046808;28;20051;-56
2022/07/27 00:05:50;;;;;;;4.60;1.30;;;13.40;99.90;;;;;;5049442;28;20499;-57
2022/07/27 00:08:19;;;;;;;9.38;1.50;;;13.40;99.90;;;;;;5045767;28;20045;-58
2022/07/27 00:10:45;;;;;;;4.40;2.35;;;13.50;99.90;;;;;;5049294;28;20079;-55
2022/07/27 00:13:11;;;;;;;4.32;2.10;;;13.60;99.90;;;;;;5043472;28;20087;-57
2022/07/27 00:15:36;;;;;;;6.80;2.95;;;13.60;99.90;;;;;;5050505;28;20455;-58
2022/07/27 00:18:02;;;;;;;5.50;1.70;;;13.40;99.90;;;;;;5046145;28;20037;-58
2022/07/27 00:20:29;;;;;;;4.10;1.45;;;13.20;99.90;;;;;;5054149;28;20502;-58
2022/07/27 00:22:55;;;;;;;5.63;1.60;;;13.30;99.90;;;;;;5054154;28;20029;-58
2022/07/27 00:25:22;;;;;;;3.50;1.60;;;13.10;99.90;;;;;;5050236;28;20037;-59
2022/07/27 00:27:48;;;;;;;2.80;1.25;;;13.40;99.90;;;;;;5048341;28;20044;-54
2022/07/27 00:30:13;;;;;;;3.28;2.60;;;13.50;99.90;;;;;;5040270;28;20403;-58
2022/07/27 00:32:39;;;;;;;3.53;1.60;;;;;;;;;;5037487;28;20037;-59
2022/07/27 00:35:06;;;;;;;3.13;1.50;;;13.40;99.90;;;;;;5043351;28;20032;-58
2022/07/27 00:37:32;;;;;;;3.78;1.70;;;;;;;;;;5046182;28;20038;-60
2022/07/27 00:40:01;;;;;;;7.03;1.58;;;13.50;99.90;;;;;;5043483;28;20415;-58
2022/07/27 00:42:27;;;;;;;3.03;1.73;;;13.60;99.90;;;;;;5040708;28;20041;-57
2022/07/27 00:44:56;;;;;;;11.95;1.88;;;13.50;99.90;;;;;;5051512;28;20120;-60
2022/07/27 00:47:22;;;;;;;3.03;1.60;;;13.70;99.90;;;;;;5049317;28;20090;-58
2022/07/27 00:49:48;;;;;;;3.83;1.65;;;13.70;99.90;;;;;;5043958;28;20040;-58
2022/07/27 00:52:14;;;;;;;4.60;1.30;;;13.50;99.90;;;;;;5053738;28;20045;-58
2022/07/27 00:54:41;;;;;;;4.57;1.30;;;13.60;99.90;;;;;;5054225;28;20047;-56
2022/07/27 00:57:09;;;;;;;3.38;1.10;;;13.70;99.90;;;;;;5048857;28;20053;-54
2022/07/27 00:59:38;;;;;;;3.38;1.27;;;13.60;99.90;;;;;;5038995;28;20134;-54
2022/07/27 01:02:06;;;;;;;5.57;1.75;;;13.60;99.90;;;;;;5049930;28;20048;-57
2022/07/27 01:04:32;;;;;;;3.47;1.35;;;13.70;99.90;;;;;;5040628;28;20034;-59
2022/07/27 01:06:57;;;;;;;4.38;1.23;;;13.60;99.90;;;;;;5044271;28;20055;-59
2022/07/27 01:12:13;;;;;;;4.15;1.20;;;13.70;99.90;;;;;;5047947;28;20480;-56
2022/07/27 01:14:39;;;;;;;4.93;1.42;;;13.50;99.90;;;;;;5046070;28;20071;-57
2022/07/27 01:17:05;;;;;;;4.25;1.70;;;13.60;99.90;;;;;;5041484;28;20072;-57
2022/07/27 01:19:32;;;;;;;2.70;1.52;;;13.60;99.90;;;;;;5038912;28;20424;-57
2022/07/27 01:21:57;;;;;;;3.97;1.88;;;13.50;99.90;;;;;;5044053;28;20116;-57
2022/07/27 01:24:23;;;;;;;3.63;1.73;;;13.70;99.90;;;;;;5051062;28;20087;-54
2022/07/27 01:26:48;;;;;;;4.25;2.10;;;13.60;99.90;;;;;;5047981;28;20036;-58
2022/07/27 01:29:14;;;;;;;4.85;1.80;;;13.40;99.90;;;;;;5046264;28;20111;-53
2022/07/27 01:31:40;;;;;;;3.85;1.58;;;13.50;99.90;;;;;;5033784;28;20100;-57
2022/07/27 01:34:05;;;;;;;4.25;2.60;;;13.50;99.90;;;;;;5041398;28;20587;-54
2022/07/27 01:36:31;;;;;;;4.63;1.95;;;13.40;99.90;;;;;;5043180;28;20517;-55
2022/07/27 01:38:57;;;;;;;4.15;2.30;;;13.40;99.90;;;;;;5044580;28;20037;-56
2022/07/27 01:41:22;;;;;;;3.70;2.08;;;13.20;99.90;;;;;;5051617;28;20424;-56
2022/07/27 01:43:48;;;;;;;4.57;1.92;;;13.30;99.90;;;;;;5049330;28;20044;-55
2022/07/27 01:46:14;;;;;;;6.43;1.95;;;13.10;99.90;;;;;;5052077;28;20063;-55
2022/07/27 01:48:42;;;;;;;3.38;1.92;;;13.20;99.90;;;;;;5038906;28;20033;-57
2022/07/27 01:51:16;;;;;;;4.90;2.22;;;13.20;99.90;;;;;;5051314;28;20292;-57
2022/07/27 01:53:42;;;;;;;4.68;2.20;;;13.10;99.90;;;;;;5039211;28;20410;-55
2022/07/27 01:56:11;;;;;;;4.82;2.20;;;13.10;99.90;;;;;;5044879;28;20045;-54
2022/07/27 01:58:38;;;;;;;4.20;2.03;;;13.10;99.90;;;;;;5005210;28;1026385;-58
2022/07/27 02:01:05;;;;;;;5.38;2.40;;;13.00;99.90;;;;;;5046128;28;20065;-56
2022/07/27 02:03:31;;;;;;;4.78;2.25;;;13.10;99.90;;;;;;5047050;28;20043;-57
2022/07/27 02:05:57;;;;;;;3.42;1.90;;;12.90;99.90;;;;;;5047893;28;20041;-56
2022/07/27 02:08:22;;;;;;;5.82;1.98;;;12.80;99.90;;;;;;5040361;28;20037;-54
2022/07/27 02:13:33;;;;;;;2.80;1.85;;;;;;;;;;5042609;28;20045;-59
2022/07/27 02:15:59;;;;;;;6.28;1.90;;;12.90;99.90;;;;;;5048191;28;20041;-54
2022/07/27 02:18:24;;;;;;;3.22;1.70;;;12.80;99.90;;;;;;5045343;28;20041;-57
2022/07/27 02:20:50;;;;;;;2.47;1.85;;;12.80;99.90;;;;;;5033955;28;20057;-57
2022/07/27 02:23:16;;;;;;;4.13;2.00;;;12.90;99.90;;;;;;5034041;28;20029;-57
2022/07/27 02:25:41;;;;;;;5.63;2.20;;;12.80;99.90;;;;;;5048306;28;20094;-54
2022/07/27 02:28:07;;;;;;;7.07;3.45;;;;;;;;;;5047722;28;20041;-57
2022/07/27 02:30:33;;;;;;;3.30;1.90;;;12.70;99.90;;;;;;5051237;28;20041;-54
2022/07/27 02:32:59;;;;;;;4.63;2.08;;;12.80;99.90;;;;;;5051910;28;20056;-56
2022/07/27 02:35:25;;;;;;;4.47;1.90;;;12.80;99.90;;;;;;5045427;28;20033;-56
2022/07/27 02:37:50;;;;;;;10.63;2.78;;;12.70;99.90;;;;;;5047390;28;20194;-57
2022/07/27 02:40:17;;;;;;;5.22;1.85;;;12.60;99.90;;;;;;5046423;28;20530;-56
2022/07/27 02:42:43;;;;;;;3.63;1.90;;;12.60;99.90;;;;;;5040493;28;20507;-57
2022/07/27 02:45:09;;;;;;;3.30;2.13;;;12.40;99.90;;;;;;5035949;28;20034;-56
2022/07/27 02:47:34;;;;;;;4.70;1.75;;;12.50;99.90;;;;;;5043587;28;20036;-56
2022/07/27 02:50:03;;;;;;;7.55;2.00;;;12.40;99.90;;;;;;5048526;28;20048;-56
2022/07/27 02:52:29;;;;;;;4.05;2.05;;;12.40;99.90;;;;;;5036863;28;20543;-54
2022/07/27 02:54:55;;;;;;;6.05;2.05;;;12.60;99.90;;;;;;5046481;28;20124;-54
2022/07/27 02:57:20;;;;;;;2.03;1.63;;;12.50;99.90;;;;;;5044062;28;20057;-55
2022/07/27 02:59:46;;;;;;;2.97;1.70;;;12.40;99.90;;;;;;5034001;28;20037;-57
2022/07/27 03:02:11;;;;;;;8.15;1.95;;;12.40;99.90;;;;;;5044085;28;20040;-57
2022/07/27 03:04:37;;;;;;;3.78;2.42;;;12.40;99.90;;;;;;5048886;28;20049;-56
2022/07/27 03:07:02;;;;;;;3.58;1.70;;;12.40;99.90;;;;;;5042408;28;20037;-55
2022/07/27 03:09:28;;;;;;;3.75;1.95;;;12.50;99.90;;;;;;5043351;28;20454;-56
2022/07/27 03:11:53;;;;;;;3.30;1.58;;;12.20;99.90;;;;;;5045125;28;20028;-56
2022/07/27 03:14:19;;;;;;;3.15;2.00;;;12.40;99.90;;;;;;5039956;28;20088;-54
2022/07/27 03:16:45;;;;;;;2.58;1.80;;;;;;;;;;5044236;28;20040;-58
2022/07/27 03:19:11;;;;;;;3.63;1.77;;;12.30;99.90;;;;;;5037852;28;20482;-57
2022/07/27 03:21:37;;;;;;;3.30;1.55;;;12.40;99.90;;;;;;5041210;28;20095;-58
2022/07/27 03:24:03;;;;;;;3.35;2.00;;;12.10;99.90;;;;;;5041899;28;20403;-57
2022/07/27 03:26:29;;;;;;;4.85;1.63;;;12.30;99.90;;;;;;5045785;28;20058;-57
2022/07/27 03:28:56;;;;;;;3.20;1.85;;;12.30;99.90;;;;;;5041918;28;20033;-55
2022/07/27 03:31:21;;;;;;;7.07;1.92;;;12.20;99.90;;;;;;5044380;28;20490;-57
2022/07/27 03:33:47;;;;;;;5.80;2.13;;;12.20;99.90;;;;;;5039241;28;20163;-55
2022/07/27 03:36:13;;;;;;;3.95;1.77;;;12.10;99.90;;;;;;5043412;28;20041;-54
2022/07/27 03:38:38;;;;;;;4.30;2.30;;;12.10;99.90;;;;;;5046863;28;20128;-55
2022/07/27 03:41:05;;;;;;;4.20;1.95;;;11.90;99.90;;;;;;5047750;28;20033;-57
2022/07/27 03:43:31;;;;;;;3.88;2.15;;;12.20;99.90;;;;;;5038875;28;20116;-56
2022/07/27 03:45:57;;;;;;;4.18;2.15;;;12.10;99.90;;;;;;5043472;28;20513;-55
2022/07/27 03:48:22;;;;;;;3.47;1.90;;;12.00;99.90;;;;;;5037972;28;20045;-58
2022/07/27 03:50:48;;;;;;;2.95;2.17;;;12.00;99.90;;;;;;5040166;28;20069;-55
2022/07/27 03:53:14;;;;;;;3.92;1.83;;;12.10;99.90;;;;;;5034811;28;20132;-56
2022/07/27 03:55:39;;;;;;;5.90;1.95;;;12.20;99.90;;;;;;5040964;28;20103;-56
2022/07/27 03:58:05;;;;;;;5.13;2.05;;;12.10;99.90;;;;;;5047990;28;20562;-57
2022/07/27 04:00:33;;;;;;;3.97;1.98;;;12.10;99.90;;;;;;5046245;28;20048;-56
2022/07/27 04:02:59;;;;;;;7.47;2.35;;;;;;;;;;5040111;28;20064;-54
2022/07/27 04:05:24;;;;;;;6.25;1.98;;;12.10;99.90;;;;;;5039415;28;20472;-56
2022/07/27 04:07:50;;;;;;;6.22;2.35;;;12.10;99.90;;;;;;5041089;28;20049;-54
2022/07/27 04:10:17;;;;;;;2.92;2.33;;;12.30;99.90;;;;;;5034262;28;20038;-56
2022/07/27 04:12:42;;;;;;;4.15;1.83;;;12.30;99.90;;;;;;5038684;28;20108;-55
2022/07/27 04:15:09;;;;;;;4.32;2.17;;;12.30;99.90;;;;;;5042984;28;20120;-55
2022/07/27 04:17:34;;;;;;;7.75;2.22;;;12.20;99.90;;;;;;5039952;28;20061;-54
2022/07/27 04:20:03;;;;;;;3.95;1.88;;;12.30;99.90;;;;;;5033176;28;20049;-55
2022/07/27 04:22:29;;;;;;;5.35;1.98;;;12.30;99.90;;;;;;5035009;28;20041;-55
2022/07/27 04:24:54;;;;;;;4.05;1.90;;;12.10;99.90;;;;;;5035709;28;20472;-55
2022/07/27 04:27:22;;;;;;;4.90;2.58;;;12.40;99.90;;;;;;5038336;28;20041;-56
2022/07/27 04:29:48;;;;;;;5.28;2.38;;;12.40;99.90;;;;;;5040544;28;20060;-57
2022/07/27 04:32:13;;;;;;;4.03;2.50;;;12.30;99.90;;;;;;5050641;28;20075;-56
2022/07/27 04:34:39;;;;;;;5.88;2.53;;;12.40;99.90;;;;;;5044820;28;20395;-54
2022/07/27 04:37:05;;;;;;;4.57;2.40;;;12.30;99.90;;;;;;5036315;28;20423;-57
2022/07/27 04:39:30;;;;;;;4.47;2.65;;;12.50;99.90;;;;;;5044542;28;20094;-57
2022/07/27 04:41:56;;;;;;;5.93;2.65;;;12.50;99.90;;;;;;5046348;28;20072;-54
2022/07/27 04:44:21;;;;;;;7.18;2.60;;;12.60;99.90;;;;;;5047766;28;20041;-56
2022/07/27 04:46:47;;;;;;;7.10;2.60;;;12.70;99.90;;;;;;5043879;28;20048;-57
2022/07/27 04:49:13;;;;;;;5.60;2.35;;;12.50;99.90;;;;;;5033639;28;20037;-58
2022/07/27 04:51:42;;;;;;;5.03;2.78;;;12.60;99.90;;;;;;5034223;28;20033;-60
2022/07/27 04:54:08;;;;;;;5.07;2.53;;;12.70;99.90;;;;;;5048183;28;20083;-57
2022/07/27 04:56:33;;;;;;;5.25;2.60;;;12.60;99.90;;;;;;5037588;28;20034;-57
2022/07/27 04:58:59;;;;;;;6.40;2.88;;;12.60;99.90;;;;;;5051662;28;20068;-57
2022/07/27 05:01:24;;;;;;;5.88;2.33;;;12.90;99.90;;;;;;5040730;28;20033;-57
2022/07/27 05:03:51;;;;;;;8.82;2.88;;;12.90;99.90;;;;;;5049617;28;20044;-54
2022/07/27 05:06:17;;;;;;;11.40;3.08;;;12.80;99.90;;;;;;5040533;28;20518;-56
2022/07/27 05:08:43;;;;;;;7.45;2.67;;;;;;;;;;5049486;28;20059;-58
2022/07/27 05:11:08;;;;;;;3.53;2.63;;;13.10;99.90;;;;;;5036410;28;20484;-57
2022/07/27 05:13:38;;;;;;;4.32;2.33;;;13.00;99.90;;;;;;5042992;28;20029;-55
2022/07/27 05:16:05;;;;;;;7.38;2.20;;;13.00;99.90;;;;;;5042313;28;20029;-56
2022/07/27 05:18:31;;;;;;;5.47;2.72;;;13.10;99.90;;;;;;5044727;28;20043;-57
2022/07/27 05:20:57;;;;;;;6.95;3.05;;;13.10;99.90;;;;;;5042996;28;20394;-57
2022/07/27 05:23:22;;;;;;;8.90;2.92;;;13.00;99.90;;;;;;5051019;28;20034;-54
2022/07/27 05:25:48;;;;;;;5.93;2.40;;;13.20;99.90;;;;;;5037208;28;20072;-57
2022/07/27 05:28:14;;;;;;;6.50;2.08;;;;;;;;;;5042576;28;20049;-55
2022/07/27 05:30:40;;;;;;;5.75;2.33;;;13.10;99.90;;;;;;5036558;28;20494;-55
2022/07/27 05:33:06;;;;;;;6.63;2.40;;;;;;;;;;5041753;28;20037;-59
2022/07/27 05:35:31;;;;;;;4.63;2.15;;;13.10;99.90;;;;;;5051637;28;20513;-57
2022/07/27 05:37:57;;;;;;;8.63;2.05;;;13.20;99.90;;;;;;5046959;28;20068;-57
2022/07/27 05:40:23;;;;;;;10.50;2.40;;;;;;;;;;5037508;28;20052;-68
2022/07/27 05:42:48;;;;;;;5.82;2.38;;;13.30;99.90;;;;;;5048706;28;20032;-65
2022/07/27 05:45:14;;;;;;;5.65;1.98;;;13.50;99.90;;;;;;5050836;28;20029;-66
2022/07/27 05:47:39;;;;;;;3.55;2.40;;;13.40;99.90;;;;;;5047617;28;20041;-65
2022/07/27 05:50:06;;;;;;;8.07;2.40;;;13.50;99.90;;;;;;5049429;28;20032;-66
2022/07/27 05:52:31;;;;;;;5.93;2.20;;;;;;;;;;5049651;28;20097;-66
2022/07/27 05:54:57;;;;;;;7.43;2.28;;;13.40;99.90;;;;;;5040625;28;20133;-66
2022/07/27 05:57:23;;;;;;;4.07;2.00;;;;;;;;;;5046211;28;20064;-65
2022/07/27 05:59:53;;;;;;;7.75;2.13;;;13.60;99.90;;;;;;5048679;28;20128;-66
2022/07/27 06:02:18;;;;;;;5.88;2.20;;;13.50;99.90;;;;;;5044755;28;20041;-66
2022/07/27 06:04:44;;;;;;;6.55;2.20;;;13.60;99.90;;;;;;5043918;28;20423;-65
2022/07/27 06:09:54;;;;;;;10.85;2.85;;;13.80;99.90;;;;;;5046060;28;20042;-65
2022/07/27 06:12:19;;;;;;;8.48;2.63;;;13.80;99.90;;;;;;5038071;28;20030;-64
2022/07/27 06:14:45;;;;;;;7.30;2.60;;;;;;;;;;5042098;28;20045;-64
2022/07/27 06:17:11;;;;;;;11.95;2.20;;;14.00;99.90;;;;;;5043811;28;20139;-64
2022/07/27 06:19:38;;;;;;;6.25;1.98;;;14.00;99.90;;;;;;5047530;28;20048;-64
2022/07/27 06:22:05;;;;;;;3.38;1.85;;;14.30;99.90;;;;;;5040600;28;20041;-64
2022/07/27 06:24:31;;;;;;;9.25;2.60;;;14.30;99.90;;;;;;5038557;28;20123;-65
2022/07/27 06:26:56;;;;;;;9.50;2.33;;;14.30;99.90;;;;;;5044687;28;20618;-65
2022/07/27 06:29:22;;;;;;;5.43;2.35;;;14.30;99.90;;;;;;5037046;28;20033;-65
2022/07/27 06:31:47;;;;;;;3.58;1.95;;;14.50;99.90;;;;;;5039148;28;20120;-64
2022/07/27 06:34:14;;;;;;;9.40;2.28;;;14.60;99.90;;;;;;5048235;28;20037;-64
2022/07/27 06:36:41;;;;;;;10.02;2.08;;;14.50;99.90;;;;;;5037263;28;20372;-64
2022/07/27 06:39:07;;;;;;;8.50;2.10;;;14.60;99.90;;;;;;5032378;28;20033;-65
2022/07/27 06:41:33;;;;;;;8.60;2.15;;;14.60;99.90;;;;;;5043436;28;21400;-65
2022/07/27 06:43:59;;;;;;;9.30;2.25;;;14.70;99.90;;;;;;5040925;28;20052;-64
2022/07/27 06:46:25;;;;;;;6.20;2.03;;;14.80;99.90;;;;;;5033767;28;20034;-65
2022/07/27 06:48:51;;;;;;;7.55;2.58;;;14.90;99.90;;;;;;5042769;28;20399;-65
2022/07/27 06:51:17;;;;;;;7.75;2.08;;;14.70;99.90;;;;;;5044782;28;20124;-65
2022/07/27 06:53:43;;;;;;;7.07;3.47;;;14.90;99.90;;;;;;5048282;28;20116;-65
2022/07/27 06:56:09;;;;;;;5.80;1.80;;;14.70;99.90;;;;;;5040813;28;20136;-65
2022/07/27 06:58:36;;;;;;;7.47;2.47;;;15.00;99.90;;;;;;5033340;28;20132;-65
2022/07/27 07:01:03;;;;;;;5.35;2.60;;;15.10;99.90;;;;;;5035496;28;20075;-65
2022/07/27 07:03:28;;;;;;;5.15;2.40;;;16.20;99.90;;;;;;5049386;28;20086;-64
2022/07/27 07:05:57;;;;;;;6.78;2.63;;;15.10;99.90;;;;;;5042501;28;20036;-65
2022/07/27 07:08:22;;;;;;;5.00;2.17;;;15.10;99.90;;;;;;5048258;28;20479;-65
2022/07/27 07:10:49;;;;;;;8.32;2.38;;;15.20;99.90;;;;;;5041046;28;20065;-64
2022/07/27 07:13:15;;;;;;;3.80;2.00;;;15.10;99.90;;;;;;5035006;28;20041;-67
2022/07/27 07:15:42;;;;;;;8.40;2.30;;;15.00;99.90;;;;;;5041583;28;20037;-64
2022/07/27 07:18:09;;;;;;;5.43;2.15;;;15.30;99.90;;;;;;5047742;28;20037;-66
2022/07/27 07:20:36;;;;;;;7.90;2.50;;;15.30;99.90;;;;;;5040074;28;20065;-66
2022/07/27 07:23:05;;;;;;;7.50;2.00;;;15.40;99.90;;;;;;5048599;28;20037;-68
2022/07/27 07:25:31;;;;;;;6.35;1.83;;;15.60;99.90;;;;;;5042114;28;20045;-65
2022/07/27 07:27:57;;;;;;;9.15;2.42;;;15.80;99.90;;;;;;5042986;28;20099;-65
2022/07/27 07:30:23;;;;;;;6.00;2.10;;;15.80;99.90;;;;;;5035743;28;20510;-64
2022/07/27 07:32:48;;;;;;;7.45;1.95;;;15.90;99.90;;;;;;5044400;28;20116;-68
2022/07/27 07:35:14;;;;;;;8.98;1.95;;;16.20;99.90;;;;;;5041855;28;20068;-66
2022/07/27 07:37:41;;;;;;;10.27;1.48;;;;;;;;;;5044825;28;20049;-69
2022/07/27 07:40:09;;;;;;;7.45;1.70;;;16.00;99.90;;;;;;5036208;28;20045;-65
2022/07/27 07:42:48;;;;;;;3.25;1.17;;;16.00;99.90;;;;;;5037679;28;20088;-64
2022/07/27 07:45:15;;;;;;;3.15;1.50;;;16.10;99.90;;;;;;5043016;28;20040;-65
2022/07/27 07:47:40;;;;;;;4.25;1.10;;;16.30;99.90;;;;;;5036769;28;20128;-64
2022/07/27 07:50:06;;;;;;;3.33;1.20;;;16.50;99.90;;;;;;5043058;28;20125;-66
2022/07/27 07:52:32;;;;;;;5.18;1.40;;;16.50;99.90;;;;;;5041410;28;20055;-65
2022/07/27 07:54:57;;;;;;;4.15;1.05;;;16.50;99.90;;;;;;5042532;28;20025;-67
2022/07/27 07:57:23;;;;;;;7.00;1.00;;;16.70;99.90;;;;;;5032424;28;20113;-65
2022/07/27 07:59:48;;;;;;;4.53;1.25;;;16.70;99.90;;;;;;5049881;28;20049;-64
2022/07/27 08:02:14;;;;;;;4.78;0.95;;;16.80;99.90;;;;;;5042081;28;20116;-63
2022/07/27 08:04:39;;;;;;;4.80;1.10;;;16.90;99.90;;;;;;5040308;28;20041;-63
2022/07/27 08:07:05;;;;;;;4.57;1.10;;;17.20;99.90;;;;;;5042310;28;20075;-62
2022/07/27 08:09:31;;;;;;;3.15;1.00;;;16.90;99.90;;;;;;5043223;28;20029;-63
2022/07/27 08:11:57;;;;;;;5.03;1.27;;;17.10;99.90;;;;;;5044912;28;20042;-64
2022/07/27 08:14:25;;;;;;;2.17;0.93;;;17.20;99.90;;;;;;5044240;28;20127;-65
2022/07/27 08:16:51;;;;;;;2.70;1.00;;;17.20;99.90;;;;;;5051116;28;20115;-64
2022/07/27 08:19:16;;;;;;;4.85;1.02;;;17.30;99.90;;;;;;5041331;28;20179;-65
2022/07/27 08:21:42;;;;;;;4.95;1.63;;;17.30;99.90;;;;;;5047897;28;20049;-66
2022/07/27 08:24:08;;;;;;;9.68;1.77;;;17.40;99.90;;;;;;5040717;28;20073;-64
2022/07/27 08:26:33;;;;;;;5.32;1.40;;;17.50;99.90;;;;;;5043762;28;20037;-65
2022/07/27 08:28:59;;;;;;;2.42;0.80;;;17.50;99.90;;;;;;5047453;28;20073;-64
2022/07/27 08:31:24;;;;;;;4.15;1.00;;;17.40;99.90;;;;;;5044875;28;20395;-68
2022/07/27 08:33:50;;;;;;;2.28;0.77;;;17.30;99.90;;;;;;5040543;28;20041;-68
2022/07/27 08:36:16;;;;;;;7.97;1.23;;;18.10;99.90;;;;;;5041050;28;20047;-65
2022/07/27 08:38:41;;;;;;;10.13;1.95;;;17.60;99.90;;;;;;5047307;28;20053;-65
2022/07/27 08:41:08;;;;;;;6.80;1.30;;;17.60;99.90;;;;;;5042675;28;20502;-70
2022/07/27 08:43:35;;;;;;;3.83;1.30;;;17.60;99.90;;;;;;5045782;28;20037;-71
2022/07/27 08:46:00;;;;;;;4.15;0.70;;;17.70;99.90;;;;;;5044617;28;20483;-66
2022/07/27 08:48:29;;;;;;;4.95;1.10;;;17.40;99.90;;;;;;5044050;28;20042;-66
2022/07/27 08:50:55;;;;;;;5.45;1.00;;;17.30;99.90;;;;;;5048573;28;20483;-66
2022/07/27 08:53:21;;;;;;;6.03;2.25;;;17.20;99.90;;;;;;5052473;28;20047;-64
2022/07/27 08:55:47;;;;;;;4.57;1.17;;;17.40;99.90;;;;;;5045031;28;20051;-65
2022/07/27 08:58:14;;;;;;;4.72;1.10;;;17.20;99.90;;;;;;5045923;28;20486;-66
2022/07/27 09:00:48;;;;;;;7.30;2.03;;;17.20;99.90;;;;;;5037112;28;20057;-67
2022/07/27 09:03:16;;;;;;;6.28;1.30;;;17.20;99.90;;;;;;5048884;28;20037;-62
2022/07/27 09:05:53;;;;;;;3.65;1.13;;;17.20;99.90;;;;;;5048539;28;20052;-62
2022/07/27 09:08:26;;;;;;;7.53;0.90;;;17.10;99.90;;;;;;5036966;28;20037;-62
2022/07/27 09:10:53;;;;;;;5.72;0.90;;;17.20;99.90;;;;;;5042793;28;20087;-62
2022/07/27 09:13:28;;;;;;;4.82;1.15;;;17.10;99.90;;;;;;5043885;28;20037;-62
2022/07/27 09:16:02;;;;;;;6.53;1.60;;;17.30;99.90;;;;;;5041607;28;20038;-62
2022/07/27 09:18:29;;;;;;;4.80;0.90;;;17.10;99.90;;;;;;5047562;28;20342;-62
2022/07/27 09:21:17;;;;;;;7.88;1.00;;;17.20;99.90;;;;;;5048769;28;20069;-61
2022/07/27 09:23:48;;;;;;;5.93;1.10;;;17.00;99.90;;;;;;5046562;28;20569;-62
2022/07/27 09:26:16;;;;;;;8.88;1.25;;;17.00;99.90;;;;;;5045454;28;20073;-62
2022/07/27 09:28:42;;;;;;;3.25;1.20;;;17.00;99.90;;;;;;5041634;28;20064;-62
2022/07/27 09:31:13;;;;;;;8.18;1.33;;;16.90;99.90;;;;;;5042230;28;20043;-62
2022/07/27 09:33:44;;;;;;;4.15;1.30;;;17.00;99.90;;;;;;5052025;28;20033;-62
2022/07/27 09:36:10;;;;;;;7.38;1.13;;;17.20;99.90;;;;;;5039080;28;20069;-62
2022/07/27 09:38:35;;;;;;;5.25;1.52;;;17.20;99.90;;;;;;5049509;28;20086;-62
2022/07/27 09:41:03;;;;;;;2.72;0.85;;;17.30;99.90;;;;;;5038798;28;20098;-62
2022/07/27 09:43:29;;;;;;;5.03;1.00;;;17.20;99.90;;;;;;5039905;28;20475;-62
2022/07/27 09:45:55;;;;;;;8.43;1.25;;;17.40;99.90;;;;;;5049963;28;20043;-62
2022/07/27 09:48:22;;;;;;;4.32;1.27;;;17.50;99.90;;;;;;5036833;28;20034;-62
2022/07/27 09:50:57;;;;;;;4.80;1.85;;;17.70;99.90;;;;;;5047066;28;20048;-62
2022/07/27 09:53:25;;;;;;;5.00;1.63;;;18.00;99.90;;;;;;5041488;28;20040;-62
2022/07/27 09:56:12;;;;;;;6.00;1.52;;;18.30;99.90;;;;;;5021658;28;20422;-62
2022/07/27 09:58:42;;;;;;;7.80;1.20;;;18.30;99.90;;;;;;5043739;28;20057;-62
2022/07/27 10:01:13;;;;;;;7.03;0.98;;;18.30;99.90;;;;;;5046953;28;20582;-62
2022/07/27 10:03:40;;;;;;;9.57;1.60;;;18.30;99.90;;;;;;5041431;28;20041;-62
2022/07/27 10:06:08;;;;;;;8.88;0.80;;;18.50;99.90;;;;;;5051206;28;20045;-62
2022/07/27 10:08:35;;;;;;;6.18;1.58;;;18.40;99.90;;;;;;5050808;28;20511;-62
2022/07/27 10:11:01;;;;;;;12.88;1.77;;;18.30;99.90;;;;;;5040298;28;20065;-62
2022/07/27 10:13:27;;;;;;;4.32;1.10;;;19.70;99.90;;;;;;5046429;28;20060;-62
2022/07/27 10:15:53;;;;;;;3.53;0.90;;;18.50;99.90;;;;;;5043536;28;20380;-62
2022/07/27 10:18:34;;;;;;;3.30;1.00;;;18.80;99.90;;;;;;5047553;28;20495;-62
2022/07/27 10:21:07;;;;;;;2.25;0.93;;;18.90;99.90;;;;;;5036789;28;20293;-62
2022/07/27 10:23:36;;;;;;;9.02;1.20;;;18.80;99.90;;;;;;5040631;28;20048;-62
2022/07/27 10:26:26;;;;;;;7.68;1.10;;;18.70;99.90;;;;;;5049767;28;20041;-62
2022/07/27 10:28:57;;;;;;;1.67;0.75;;;18.60;99.90;;;;;;5050460;28;20085;-62
2022/07/27 10:31:31;;;;;;;6.20;0.95;;;18.90;99.90;;;;;;5048639;28;20529;-62
2022/07/27 10:33:59;;;;;;;5.10;0.98;;;18.70;99.90;;;;;;5035399;28;20116;-62
2022/07/27 10:36:31;;;;;;;6.68;1.00;;;18.30;99.90;;;;;;5038335;28;20067;-62
2022/07/27 10:38:59;;;;;;;3.85;0.93;;;18.30;99.90;;;;;;5039747;28;20079;-62
2022/07/27 10:41:29;;;;;;;7.22;1.10;;;18.30;99.90;;;;;;5046866;28;20035;-62
2022/07/27 10:44:13;;;;;;;6.30;0.88;;;18.30;99.90;;;;;;5039452;28;20075;-62
2022/07/27 10:46:57;;;;;;;7.10;1.23;;;18.50;99.90;;;;;;5039046;28;20036;-62
2022/07/27 10:49:28;;;;;;;6.07;0.90;;;18.40;99.90;;;;;;5047972;28;20037;-62
2022/07/27 10:51:56;;;;;;;2.85;0.63;;;18.30;99.90;;;;;;5046191;28;20102;-62
2022/07/27 10:54:34;;;;;;;4.43;1.08;;;18.40;99.90;;;;;;5042603;28;20121;-62
2022/07/27 10:57:02;;;;;;;7.80;0.95;;;18.80;99.90;;;;;;5045202;28;20511;-62
2022/07/27 10:59:42;;;;;;;4.55;0.93;;;18.80;99.90;;;;;;5040213;28;20041;-62
2022/07/27 11:02:09;;;;;;;5.68;1.65;;;18.50;99.90;;;;;;5045734;28;20076;-62
2022/07/27 11:04:44;;;;;;;7.50;1.00;;;18.90;99.90;;;;;;5043329;28;20044;-62
2022/07/27 11:07:09;;;;;;;10.15;3.78;;;19.00;99.90;;;;;;5034248;28;20518;-62
2022/07/27 11:09:39;;;;;;;3.30;0.85;;;19.30;99.90;;;;;;5046244;28;20077;-62
2022/07/27 11:12:08;;;;;;;7.03;0.80;;;19.20;99.90;;;;;;5047485;28;20071;-62
2022/07/27 11:14:48;;;;;;;4.72;0.95;;;19.20;99.90;;;;;;5046765;28;20121;-62
2022/07/27 11:17:16;;;;;;;4.07;0.90;;;19.10;99.90;;;;;;5043424;28;20406;-62
2022/07/27 11:19:41;;;;;;;8.02;1.98;;;18.90;99.90;;;;;;5045716;28;20048;-62
2022/07/27 11:22:08;;;;;;;8.00;1.80;;;19.00;99.90;;;;;;5044146;28;20041;-62
2022/07/27 11:24:35;;;;;;;6.28;1.38;;;19.00;99.90;;;;;;5049645;28;20059;-62
2022/07/27 11:27:02;;;;;;;2.75;0.65;;;18.90;99.90;;;;;;5048465;28;20079;-62
2022/07/27 11:29:31;;;;;;;4.78;0.95;;;18.60;99.90;;;;;;5040151;28;20550;-62
2022/07/27 11:31:59;;;;;;;3.90;0.90;;;18.60;99.90;;;;;;5046322;28;20033;-62
2022/07/27 11:34:33;;;;;;;1.88;0.63;;;18.40;99.90;;;;;;5047205;28;20533;-62
2022/07/27 11:37:04;;;;;;;3.72;1.10;;;18.60;99.90;;;;;;5045879;28;20041;-62
2022/07/27 11:39:32;;;;;;;4.00;0.70;;;18.50;99.90;;;;;;5027116;28;20048;-62
2022/07/27 11:42:00;;;;;;;4.28;0.90;;;18.50;99.90;;;;;;5041327;28;20044;-62
2022/07/27 11:44:26;;;;;;;3.92;0.77;;;18.80;99.90;;;;;;5031324;28;20122;-62
2022/07/27 11:46:53;;;;;;;4.20;0.90;;;18.60;99.90;;;;;;5032339;28;20610;-62
2022/07/27 11:49:27;;;;;;;2.97;0.60;;;18.50;99.90;;;;;;5037283;28;20033;-62
2022/07/27 11:51:54;;;;;;;4.25;0.80;;;18.40;99.90;;;;;;5039925;28;20399;-62
2022/07/27 11:54:29;;;;;;;7.03;1.25;;;18.60;99.90;;;;;;5032261;28;20040;-62
2022/07/27 11:57:15;;;;;;;3.13;0.60;;;18.50;99.90;;;;;;5030724;28;20181;-62
2022/07/27 11:59:45;;;;;;;3.90;0.90;;;18.60;99.90;;;;;;5049323;28;20045;-62
2022/07/27 12:02:20;;;;;;;4.75;0.60;;;19.10;99.90;;;;;;5045209;28;20479;-62
2022/07/27 12:04:48;;;;;;;3.83;0.85;;;18.70;99.90;;;;;;5048556;28;20053;-62
2022/07/27 12:07:28;;;;;;;4.15;0.50;;;19.10;99.90;;;;;;5037690;28;20041;-61
2022/07/27 12:10:00;;;;;;;3.50;0.70;;;19.20;99.90;;;;;;5035041;28;20049;-62
2022/07/27 12:12:29;;;;;;;2.25;0.45;;;19.40;99.90;;;;;;5035166;28;20072;-62
2022/07/27 12:15:12;;;;;;;4.95;0.68;;;19.60;99.90;;;;;;5044651;28;20711;-62
2022/07/27 12:17:39;;;;;;;5.20;0.85;;;19.50;99.90;;;;;;5041497;28;20550;-62
2022/07/27 12:20:07;;;;;;;4.57;1.15;;;19.70;99.90;;;;;;5035987;28;20404;-62
2022/07/27 12:22:34;;;;;;;4.75;0.50;;;19.70;99.90;;;;;;5047662;28;20041;-62
2022/07/27 12:25:04;;;;;;;2.72;0.50;;;19.50;99.90;;;;;;5020471;28;20041;-62
2022/07/27 12:27:30;;;;;;;5.03;0.75;;;19.50;99.90;;;;;;5043109;28;20041;-62
2022/07/27 12:29:56;;;;;;;3.67;0.60;;;20.00;99.90;;;;;;5052003;28;20043;-62
2022/07/27 12:32:26;;;;;;;3.85;0.60;;;19.60;99.90;;;;;;5052104;28;20037;-62
2022/07/27 12:34:53;;;;;;;7.00;0.73;;;19.60;99.90;;;;;;5053896;28;20068;-62
2022/07/27 12:37:19;;;;;;;1.73;0.40;;;20.00;99.90;;;;;;5061452;28;20051;-62
2022/07/27 12:39:45;;;;;;;2.70;0.50;;;20.00;99.90;;;;;;5047913;28;20110;-62
2022/07/27 12:42:11;;;;;;;4.63;0.50;;;20.20;99.90;;;;;;5037752;28;20050;-62
2022/07/27 12:44:45;;;;;;;3.60;0.50;;;20.10;99.90;;;;;;5040296;28;20083;-62
2022/07/27 12:50:08;;;;;;;2.90;0.40;;;19.70;99.90;;;;;;5041327;28;20084;-62
2022/07/27 12:52:43;;;;;;;2.20;0.40;;;19.90;99.90;;;;;;5035376;28;20060;-62
2022/07/27 12:55:09;;;;;;;2.67;0.60;;;19.60;99.90;;;;;;5034974;28;20041;-62
2022/07/27 12:57:35;;;;;;;1.65;0.60;;;19.70;99.90;;;;;;5051008;28;20053;-62
2022/07/27 13:00:03;;;;;;;3.85;0.38;;;19.60;99.90;;;;;;5042603;28;20419;-62
2022/07/27 13:02:29;;;;;;;2.42;0.50;;;19.70;99.90;;;;;;5049588;28;20055;-62